Data for 10/21/2005

Time Sea-Level Adjusted Pressure Absolute Pressure Temperature Relative Humidity Dew Point   
(mb) (inHg) (mb) (inHg) (C) (F) (%) (C) (F)
00:05 1024 30.24 854 25.22 6.8 44.3 67 1.1 34
00:10 1024 30.24 854 25.22 6.8 44.2 66 1 33.7
00:15 1024 30.24 854 25.22 6.7 44 67 1.1 34
00:20 1025 30.27 854 25.22 6.6 43.8 67 1 33.7
00:25 1025 30.27 854 25.22 6.7 44 67 1 33.7
00:30 1025 30.27 854 25.22 6.8 44.3 67 1 33.9
00:35 1025 30.27 854 25.22 7 44.7 66 1.2 34.2
00:40 1025 30.27 854 25.22 7.3 45.1 66 1.3 34.3
00:45 1025 30.27 854 25.22 7.5 45.4 66 1.5 34.7
00:50 1025 30.27 854 25.22 7.3 45.2 68 1.8 35.2
00:55 1025 30.27 854 25.22 7 44.6 69 1.8 35.2
01:00 1025 30.27 854 25.22 6.9 44.5 69 1.6 34.9
01:05 1025 30.27 854 25.22 6.9 44.5 69 1.6 34.9
01:10 1025 30.27 854 25.22 7 44.6 69 1.7 35
01:15 1025 30.27 854 25.22 7 44.6 69 1.7 35
01:20 1025 30.27 854 25.22 7 44.5 70 1.8 35.2
01:25 1025 30.27 854 25.22 6.8 44.3 70 1.7 35
01:30 1025 30.27 854 25.22 7.1 44.7 68 1.6 35
01:35 1025 30.27 854 25.22 7.3 45.1 68 1.8 35.2
01:40 1025 30.27 854 25.22 7.2 45 68 1.8 35.2
01:45 1025 30.27 854 25.22 7.1 44.8 70 1.9 35.4
01:50 1025 30.27 854 25.22 7 44.6 69 1.7 35.1
01:55 1025 30.27 854 25.22 6.9 44.3 70 1.8 35.2
02:00 1025 30.27 854 25.22 6.9 44.3 69 1.7 35
02:05 1025 30.27 854 25.22 7.1 44.7 69 1.7 35.1
02:10 1025 30.27 854 25.22 7.1 44.8 70 2 35.5
02:15 1025 30.27 854 25.22 7.1 44.8 68 1.7 35.1
02:20 1025 30.27 854 25.22 7.2 44.9 68 1.7 35.1
02:25 1025 30.27 854 25.22 7.3 45.1 68 1.7 35.1
02:30 1025 30.27 855 25.25 7.3 45.1 67 1.6 34.8
02:35 1025 30.27 855 25.25 7.4 45.3 67 1.7 35.1
02:40 1025 30.27 855 25.25 7.4 45.3 69 2.1 35.8
02:45 1026 30.3 855 25.25 7.3 45.2 70 2.2 35.9
02:50 1026 30.3 855 25.25 7 44.6 71 2.1 35.7
02:55 1026 30.3 855 25.25 6.7 44 72 2 35.6
03:00 1026 30.3 855 25.25 6.6 43.9 73 2 35.7
03:05 1026 30.3 855 25.25 6.5 43.8 73 2 35.5
03:10 1026 30.3 855 25.25 6.5 43.8 73 2.1 35.7
03:15 1026 30.3 855 25.25 6.6 43.9 72 2 35.6
03:20 1026 30.3 855 25.25 6.6 43.9 73 2 35.6
03:25 1026 30.3 855 25.25 6.6 43.8 72 2 35.6
03:30 1026 30.3 855 25.25 6.6 43.9 72 1.9 35.4
03:35 1026 30.3 855 25.25 6.7 44.1 74 2.3 36.2
03:40 1026 30.3 855 25.25 6.3 43.3 76 2.3 36.1
03:45 1026 30.3 855 25.25 6 42.8 74 1.8 35.3
03:50 1026 30.3 855 25.25 6.1 42.9 74 1.7 35.1
03:55 1026 30.3 855 25.25 6.1 42.9 73 1.7 35
04:00 1026 30.3 855 25.25 6 42.9 74 1.7 35.1
04:05 1026 30.3 855 25.25 6.1 42.9 73 1.6 34.9
04:10 1026 30.3 855 25.25 6.1 43 74 1.7 35.1
04:15 1026 30.3 855 25.25 6.1 43 73 1.7 35
04:20 1026 30.3 855 25.25 6.2 43.2 72 1.6 34.9
04:25 1026 30.3 855 25.25 6.3 43.3 72 1.7 35
04:30 1026 30.3 855 25.25 6.3 43.3 72 1.6 34.8
04:35 1026 30.3 855 25.25 6.3 43.4 71 1.4 34.6
04:40 1026 30.3 855 25.25 6.4 43.4 72 1.7 35.1
04:45 1026 30.3 855 25.25 6.2 43.2 73 1.8 35.2
04:50 1026 30.3 855 25.25 6.1 42.9 74 1.8 35.2
04:55 1026 30.3 855 25.25 5.9 42.7 77 2.1 35.8
05:00 1026 30.3 855 25.25 5.5 41.9 77 1.9 35.4
05:05 1026 30.3 855 25.25 5.5 41.8 77 1.8 35.3
05:10 1026 30.3 855 25.25 5.4 41.8 77 1.7 35
05:15 1026 30.3 855 25.25 5.4 41.7 77 1.6 34.9
05:20 1026 30.3 855 25.25 5.4 41.7 77 1.6 34.9
05:25 1026 30.3 855 25.25 5.4 41.7 77 1.6 34.8
05:30 1026 30.3 855 25.25 5.3 41.6 77 1.6 34.9
05:35 1026 30.3 855 25.25 5.3 41.6 77 1.6 34.9
05:40 1026 30.3 855 25.25 5.4 41.7 76 1.6 34.8
05:45 1026 30.3 855 25.25 5.3 41.6 76 1.5 34.7
05:50 1026 30.3 855 25.25 5.3 41.5 76 1.5 34.6
05:55 1026 30.3 855 25.25 5.4 41.7 76 1.5 34.7
06:00 1026 30.3 855 25.25 5.2 41.4 77 1.5 34.7
06:05 1026 30.3 855 25.25 5.2 41.3 77 1.5 34.8
06:10 1026 30.3 855 25.25 5.2 41.3 77 1.5 34.7
06:15 1026 30.3 855 25.25 5.3 41.6 77 1.6 35
06:20 1026 30.3 855 25.25 5.5 41.9 76 1.7 35
06:25 1026 30.3 855 25.25 5.5 41.8 77 1.8 35.2
06:30 1026 30.3 855 25.25 5.4 41.7 77 1.8 35.2
06:35 1026 30.3 855 25.25 5.5 41.8 77 1.7 35
06:40 1026 30.3 855 25.25 5.5 42 76 1.7 35.1
06:45 1026 30.3 855 25.25 5.3 41.6 79 2 35.6
06:50 1026 30.3 855 25.25 5.1 41.1 79 1.7 35.1
06:55 1026 30.3 855 25.25 4.9 40.8 81 2 35.6
07:00 1026 30.3 855 25.25 4.5 40.2 83 1.9 35.4
07:05 1026 30.3 855 25.25 4.4 39.9 85 2 35.7
07:10 1026 30.3 855 25.25 4.2 39.6 85 1.9 35.5
07:15 1026 30.3 855 25.25 4.3 39.7 85 2 35.5
07:20 1026 30.3 855 25.25 4.4 39.9 85 2.1 35.7
07:25 1026 30.3 855 25.25 4.3 39.7 85 2 35.5
07:30 1026 30.3 855 25.25 4.2 39.6 86 2.1 35.7
07:35 1026 30.3 855 25.25 4.3 39.8 85 2 35.6
07:40 1026 30.3 855 25.25 4.4 40 84 2 35.6
07:45 1026 30.3 855 25.25 4.5 40 84 1.9 35.5
07:50 1026 30.3 855 25.25 4.5 40 83 1.9 35.4
07:55 1026 30.3 855 25.25 4.5 40.1 83 1.8 35.2
08:00 1026 30.3 855 25.25 4.7 40.4 81 1.7 35.1
08:05 1026 30.3 855 25.25 4.7 40.5 81 1.8 35.3
08:10 1026 30.3 855 25.25 4.8 40.7 82 2 35.5
08:15 1026 30.3 855 25.25 5 41 80 1.8 35.3
08:20 1026 30.3 855 25.25 5.1 41.1 80 1.9 35.4
08:25 1026 30.3 855 25.25 4.6 40.3 81 1.7 35
08:30 1026 30.3 855 25.25 4.7 40.5 78 1.2 34.2
08:35 1026 30.3 856 25.28 5 41.1 76 1.1 33.9
08:40 1026 30.3 856 25.28 5.2 41.4 75 1.2 34.1
08:45 1026 30.3 856 25.28 5.6 42 74 1.2 34.2
08:50 1026 30.3 856 25.28 5.8 42.5 73 1.3 34.4
08:55 1026 30.3 856 25.28 6.1 43.1 72 1.4 34.6
09:00 1026 30.3 856 25.28 6.7 44.1 69 1.5 34.7
09:05 1026 30.3 856 25.28 7.3 45.2 67 1.7 35
09:10 1026 30.3 856 25.28 7.6 45.7 67 1.9 35.4
09:15 1026 30.3 856 25.28 7.7 45.8 68 2.1 35.8
09:20 1026 30.3 856 25.28 7.4 45.3 68 2 35.5
09:25 1026 30.3 856 25.28 7.2 44.9 68 1.7 35
09:30 1026 30.3 856 25.28 7.4 45.3 67 1.8 35.2
09:35 1026 30.3 856 25.28 7.6 45.7 66 1.7 35
09:40 1026 30.3 856 25.28 7.6 45.8 66 1.8 35.2
09:45 1026 30.3 856 25.28 7.8 46 66 1.8 35.2
09:50 1026 30.3 856 25.28 8.1 46.7 62 1.4 34.5
09:55 1026 30.3 856 25.28 8.5 47.4 60 1.3 34.4
10:00 1026 30.3 856 25.28 8.9 47.9 61 1.7 35
10:05 1026 30.3 856 25.28 9.1 48.3 59 1.4 34.5
10:10 1026 30.3 856 25.28 9.3 48.7 59 1.7 35.1
10:15 1026 30.3 856 25.28 9.4 49 59 1.9 35.4
10:20 1026 30.3 856 25.28 9.3 48.7 62 2.4 36.3
10:25 1026 30.3 856 25.28 9 48.1 62 2 35.6
10:30 1026 30.3 856 25.28 8.7 47.7 61 1.7 35.1
10:35 1026 30.3 856 25.28 9.4 48.8 58 1.6 35
10:40 1026 30.3 856 25.28 9.5 49 58 1.7 35
10:45 1026 30.3 856 25.28 10.3 50.6 56 2 35.6
10:50 1026 30.3 855 25.25 10.1 50.3 56 1.9 35.4
10:55 1026 30.3 855 25.25 9.8 49.6 58 2 35.6
11:00 1026 30.3 855 25.25 10 50 57 1.9 35.4
11:05 1026 30.3 855 25.25 10.1 50.3 57 2.1 35.8
11:10 1026 30.3 855 25.25 10.4 50.7 56 2.1 35.7
11:15 1026 30.3 855 25.25 10.4 50.7 56 2.1 35.7
11:20 1026 30.3 855 25.25 10.6 51.1 56 2.3 36.1
11:25 1026 30.3 855 25.25 10.7 51.2 56 2.2 36
11:30 1026 30.3 855 25.25 10.5 50.9 56 2.1 35.7
11:35 1026 30.3 855 25.25 11 51.8 55 2.3 36.1
11:40 1026 30.3 855 25.25 11.5 52.7 53 2.4 36.4
11:45 1026 30.3 855 25.25 11.3 52.3 55 2.7 36.8
11:50 1026 30.3 855 25.25 11.4 52.5 54 2.4 36.3
11:55 1026 30.3 855 25.25 11.9 53.4 52 2.5 36.5
12:00 1026 30.3 855 25.25 11.8 53.2 51 2 35.7
12:05 1026 30.3 855 25.25 12 53.6 51 2.2 35.9
12:10 1026 30.3 855 25.25 12.2 53.9 51 2.3 36.2
12:15 1026 30.3 855 25.25 11.4 52.4 54 2.4 36.2
12:20 1026 30.3 855 25.25 11.5 52.6 52 2 35.6
12:25 1026 30.3 855 25.25 12 53.6 49 1.8 35.3
12:30 1026 30.3 855 25.25 12.1 53.9 51 2.5 36.4
12:35 1026 30.3 855 25.25 12.4 54.2 49 2 35.6
12:40 1026 30.3 855 25.25 12.2 54 50 2.1 35.8
12:45 1025 30.27 855 25.25 12.2 53.9 50 2.2 35.9
12:50 1025 30.27 855 25.25 12.4 54.3 49 1.9 35.5
12:55 1025 30.27 855 25.25 12.5 54.5 48 1.9 35.3
13:00 1025 30.27 854 25.22 12.6 54.7 49 2.2 36
13:05 1025 30.27 854 25.22 12.8 55 47 1.9 35.4
13:10 1025 30.27 854 25.22 12.7 54.8 48 1.9 35.4
13:15 1025 30.27 854 25.22 12.7 54.8 47 1.7 35.1
13:20 1025 30.27 854 25.22 13.1 55.6 46 1.8 35.2
13:25 1025 30.27 854 25.22 13.1 55.6 45 1.5 34.6
13:30 1025 30.27 854 25.22 13 55.4 45 1.5 34.7
13:35 1025 30.27 854 25.22 12.7 54.9 47 1.6 34.9
13:40 1025 30.27 854 25.22 13.3 55.9 46 1.8 35.3
13:45 1025 30.27 854 25.22 13.4 56.1 45 1.8 35.3
13:50 1025 30.27 854 25.22 13.5 56.3 45 1.7 35.1
13:55 1025 30.27 854 25.22 13.5 56.3 45 1.8 35.2
14:00 1025 30.27 854 25.22 13.3 56 45 1.6 35
14:05 1025 30.27 854 25.22 13 55.4 45 1.4 34.5
14:10 1025 30.27 854 25.22 13.7 56.7 42 1.2 34.1
14:15 1025 30.27 854 25.22 14 57.2 43 1.9 35.3
14:20 1024 30.24 854 25.22 12.8 55.1 46 1.7 35.1
14:25 1024 30.24 854 25.22 13.8 56.8 43 1.5 34.7
14:30 1024 30.24 854 25.22 14.2 57.5 42 1.5 34.8
14:35 1024 30.24 854 25.22 14.5 58.1 40 1.2 34.1
14:40 1024 30.24 853 25.19 14.4 57.9 42 1.7 35.1
14:45 1024 30.24 853 25.19 13.9 57.1 43 1.7 35.1
14:50 1024 30.24 853 25.19 13.7 56.7 43 1.3 34.4
14:55 1024 30.24 853 25.19 14.3 57.8 41 1.4 34.5
15:00 1024 30.24 853 25.19 14.4 57.9 40 1.2 34.1
15:05 1024 30.24 853 25.19 14.5 58.1 41 1.5 34.8
15:10 1024 30.24 853 25.19 14.7 58.5 40 1.2 34.2
15:15 1024 30.24 853 25.19 13.7 56.7 44 1.8 35.2
15:20 1024 30.24 853 25.19 13.7 56.6 42 0.9 33.7
15:25 1024 30.24 853 25.19 14.6 58.3 40 1.3 34.4
15:30 1024 30.24 853 25.19 14.7 58.5 40 1.4 34.5
15:35 1024 30.24 853 25.19 14.4 57.9 41 1.2 34.2
15:40 1024 30.24 853 25.19 14.4 58 39 0.6 33.1
15:45 1024 30.24 853 25.19 14.6 58.3 39 0.8 33.5
15:50 1024 30.24 853 25.19 14.9 58.8 38 0.8 33.4
15:55 1024 30.24 853 25.19 14.9 58.8 37 0.6 33
16:00 1024 30.24 853 25.19 14.7 58.4 38 0.6 33.1
16:05 1024 30.24 853 25.19 14.6 58.3 39 0.8 33.5
16:10 1024 30.24 853 25.19 14.4 58 41 1.4 34.5
16:15 1023 30.21 853 25.19 14.6 58.3 39 0.7 33.3
16:20 1023 30.21 853 25.19 14.6 58.3 38 0.4 32.7
16:25 1023 30.21 853 25.19 14.8 58.7 38 0.9 33.6
16:30 1023 30.21 853 25.19 14.5 58.1 40 1.2 34.2
16:35 1023 30.21 853 25.19 14.2 57.6 40 1.1 33.9
16:40 1023 30.21 853 25.19 14 57.2 41 1.1 34
16:45 1023 30.21 853 25.19 13.9 57 42 1.1 34
16:50 1023 30.21 853 25.19 13.4 56.2 42 0.9 33.7
16:55 1023 30.21 853 25.19 13.5 56.3 43 1.2 34.1
17:00 1023 30.21 853 25.19 13.6 56.4 42 1.1 33.9
17:05 1023 30.21 853 25.19 13.3 55.9 43 1.1 34.1
17:10 1023 30.21 853 25.19 12.9 55.2 44 0.9 33.7
17:15 1023 30.21 853 25.19 13.1 55.6 44 1.1 34
17:20 1023 30.21 853 25.19 13.3 55.9 43 1 33.8
17:25 1023 30.21 853 25.19 13.3 55.9 42 0.8 33.4
17:30 1023 30.21 852 25.16 13.2 55.8 43 1 33.8
17:35 1023 30.21 852 25.16 13.1 55.6 43 1 33.9
17:40 1023 30.21 852 25.16 13.1 55.7 43 0.9 33.7
17:45 1023 30.21 852 25.16 13.2 55.8 43 0.9 33.6
17:50 1023 30.21 852 25.16 13.3 55.9 42 0.9 33.5
17:55 1023 30.21 852 25.16 13.1 55.5 44 1.2 34.2
18:00 1023 30.21 852 25.16 12.7 54.8 46 1.5 34.6
18:05 1023 30.21 852 25.16 12.4 54.2 47 1.5 34.6
18:10 1023 30.21 852 25.16 12.5 54.5 46 1.3 34.3
18:15 1023 30.21 852 25.16 12.9 55.1 46 1.5 34.6
18:20 1023 30.21 852 25.16 12.6 54.7 48 2.1 35.7
18:25 1023 30.21 852 25.16 12.4 54.4 48 1.9 35.4
18:30 1023 30.21 852 25.16 12.5 54.4 47 1.6 34.8
18:35 1023 30.21 852 25.16 12.4 54.3 47 1.4 34.6
18:40 1023 30.21 852 25.16 12 53.5 50 1.8 35.2
18:45 1023 30.21 852 25.16 11.9 53.4 49 1.5 34.8
18:50 1023 30.21 852 25.16 11.5 52.8 52 2.1 35.8
18:55 1023 30.21 852 25.16 11.2 52.1 52 1.7 35.1
19:00 1023 30.21 852 25.16 11 51.8 56 2.7 36.8
19:05 1023 30.21 852 25.16 10.9 51.6 59 3.2 37.8
19:10 1023 30.21 852 25.16 10.8 51.4 58 3 37.4
19:15 1023 30.21 852 25.16 10.8 51.5 58 3 37.4
19:20 1023 30.21 852 25.16 10.2 50.4 62 3.3 38
19:25 1023 30.21 852 25.16 10.2 50.3 62 3.2 37.8
19:30 1023 30.21 852 25.16 10.3 50.5 61 3.1 37.5
19:35 1023 30.21 852 25.16 10.3 50.6 61 3.2 37.8
19:40 1023 30.21 852 25.16 9.8 49.6 64 3.3 37.9
19:45 1023 30.21 852 25.16 9.7 49.4 63 3 37.3
19:50 1023 30.21 852 25.16 9.5 49.2 65 3.3 38
19:55 1023 30.21 852 25.16 9.3 48.8 64 3 37.4
20:00 1023 30.21 852 25.16 9.2 48.6 64 2.8 37
20:05 1023 30.21 852 25.16 9.1 48.4 63 2.5 36.5
20:10 1023 30.21 852 25.16 9.1 48.4 63 2.4 36.3
20:15 1023 30.21 852 25.16 9.1 48.3 63 2.3 36.2
20:20 1023 30.21 852 25.16 9 48.2 62 2.2 35.9
20:25 1023 30.21 852 25.16 9 48.2 64 2.5 36.5
20:30 1023 30.21 852 25.16 8.5 47.2 65 2.3 36.1
20:35 1023 30.21 852 25.16 8.1 46.6 66 2.2 35.9
20:40 1023 30.21 852 25.16 7.9 46.2 66 2 35.7
20:45 1023 30.21 852 25.16 7.6 45.8 67 1.9 35.4
20:50 1023 30.21 852 25.16 7.5 45.5 67 1.8 35.2
20:55 1023 30.21 852 25.16 7.3 45.2 68 1.8 35.3
21:00 1023 30.21 852 25.16 7.1 44.7 68 1.5 34.7
21:05 1023 30.21 852 25.16 6.9 44.4 67 1.3 34.3
21:10 1023 30.21 852 25.16 6.6 43.9 68 1.2 34.2
21:15 1023 30.21 852 25.16 6.5 43.7 68 1 33.8
21:20 1023 30.21 852 25.16 6.4 43.5 66 0.6 33.1
21:25 1023 30.21 852 25.16 6.4 43.5 66 0.6 33.1
21:30 1023 30.21 852 25.16 6.4 43.5 66 0.6 33.2
21:35 1023 30.21 852 25.16 6.3 43.4 66 0.5 32.9
21:40 1023 30.21 852 25.16 6.3 43.3 67 0.6 33
21:45 1023 30.21 852 25.16 6.1 43 66 0.3 32.5
21:50 1023 30.21 852 25.16 6.1 42.9 65 0.1 32.1
21:55 1023 30.21 852 25.16 6.2 43.2 65 0.2 32.3
22:00 1023 30.21 852 25.16 6.1 43 65 0 32
22:05 1023 30.21 852 25.16 6.1 42.9 64 -0.2 31.7
22:10 1023 30.21 852 25.16 6.1 42.9 64 -0.2 31.7
22:15 1023 30.21 852 25.16 6.1 42.9 64 -0.3 31.4
22:20 1023 30.21 852 25.16 6.1 43 63 -0.4 31.3
22:25 1023 30.21 852 25.16 6 42.9 63 -0.4 31.3
22:30 1023 30.21 852 25.16 5.9 42.6 61 -1 30.3
22:35 1023 30.21 852 25.16 6.1 42.9 60 -1 30.2
22:40 1023 30.21 852 25.16 6.1 43 60 -1.1 30
22:45 1023 30.21 852 25.16 6.1 42.9 62 -0.6 30.9
22:50 1023 30.21 852 25.16 6 42.7 60 -1.1 30
22:55 1023 30.21 852 25.16 5.9 42.7 62 -0.7 30.8
23:00 1023 30.21 852 25.16 5.8 42.4 63 -0.8 30.6
23:05 1023 30.21 852 25.16 5.9 42.6 60 -1.4 29.5
23:10 1023 30.21 852 25.16 6 42.8 58 -1.5 29.2
23:15 1023 30.21 852 25.16 5.8 42.4 59 -1.6 29.1
23:20 1023 30.21 852 25.16 5.9 42.7 58 -1.8 28.8
23:25 1023 30.21 852 25.16 6.1 43 56 -1.9 28.6
23:30 1023 30.21 852 25.16 5.9 42.5 59 -1.5 29.3
23:35 1023 30.21 852 25.16 5.5 42 59 -1.9 28.6
23:40 1023 30.21 852 25.16 5.8 42.5 57 -2.1 28.2
23:45 1023 30.21 852 25.16 5.8 42.5 58 -1.8 28.8
23:50 1023 30.21 852 25.16 5.8 42.4 58 -1.8 28.8
23:55 1023 30.21 852 25.16 5.6 42.1 58 -2 28.4
24:00 1023 30.21 852 25.16 5.6 42.1 60 -1.6 29